Time;durP1;ratioP1;P1;durP2;ratioP2;P2;SDS_P1;SDS_P2;PMS_P1;PMS_P2;Temp;Humidity;BMP_temperature;BMP_pressure;BME280_temperature;BME280_humidity;BME280_pressure;Samples;Min_cycle;Max_cycle;Signal;HPM_P1;HPM_P2
2022/08/07 00:02:16;;;;;;;9.48;7.35;;;;;;;18.36;100.00;98875.89;1683770;81;28095;-87
2022/08/07 00:04:45;;;;;;;9.83;7.15;;;;;;;18.23;100.00;98874.53;1688446;82;28087;-87
2022/08/07 00:07:11;;;;;;;10.00;7.83;;;;;;;18.16;100.00;98874.30;1713009;82;28031;-86
2022/08/07 00:09:38;;;;;;;8.68;7.40;;;;;;;18.13;100.00;98875.05;1684409;82;43026;-88
2022/08/07 00:12:04;;;;;;;8.33;7.30;;;;;;;18.05;100.00;98875.79;1704194;82;28061;-88
2022/08/07 00:14:31;;;;;;;9.50;7.37;;;;;;;18.02;100.00;98877.87;1690138;83;28114;-89
2022/08/07 00:17:00;;;;;;;10.58;7.53;;;;;;;17.94;100.00;98871.98;1698419;82;28076;-89
2022/08/07 00:19:27;;;;;;;8.50;7.45;;;;;;;17.87;100.00;98873.52;1695514;82;28071;-89
2022/08/07 00:21:54;;;;;;;9.65;7.67;;;;;;;17.84;100.00;98869.81;1670450;83;28100;-89
2022/08/07 00:24:20;;;;;;;11.12;7.85;;;;;;;17.80;100.00;98876.38;1701988;81;28087;-89
2022/08/07 00:26:46;;;;;;;10.32;7.60;;;;;;;17.74;100.00;98872.48;1694752;83;28068;-87
2022/08/07 00:29:12;;;;;;;14.30;7.92;;;;;;;17.70;100.00;98876.39;1687611;81;43642;-88
2022/08/07 00:31:38;;;;;;;9.85;7.60;;;;;;;17.65;100.00;98878.63;1669929;82;28134;-89
2022/08/07 00:34:04;;;;;;;9.28;7.10;;;;;;;17.63;100.00;98875.28;1685279;81;28195;-89
2022/08/07 00:36:31;;;;;;;10.20;7.95;;;;;;;17.61;100.00;98876.41;1686228;83;28307;-89
2022/08/07 00:38:57;;;;;;;9.63;8.18;;;;;;;17.57;100.00;98881.94;1692397;82;28131;-89
2022/08/07 00:41:30;;;;;;;8.58;7.45;;;;;;;17.52;100.00;98887.30;1694627;83;43089;-90
2022/08/07 00:43:56;;;;;;;9.70;7.30;;;;;;;17.47;100.00;98892.18;1692657;81;28135;-89
2022/08/07 00:46:23;;;;;;;11.53;8.18;;;;;;;17.48;100.00;98885.44;1697587;82;28112;-89
2022/08/07 00:48:49;;;;;;;9.38;7.55;;;;;;;17.48;100.00;98880.63;1697681;82;28135;-90
2022/08/07 00:51:16;;;;;;;11.45;8.43;;;;;;;17.41;100.00;98881.66;1693962;82;28115;-90
2022/08/07 00:53:42;;;;;;;12.63;8.58;;;;;;;17.38;100.00;98881.95;1691902;83;28105;-87
2022/08/07 00:56:11;;;;;;;15.05;8.43;;;;;;;17.35;100.00;98886.67;1653461;83;28238;-87
2022/08/07 00:58:43;;;;;;;9.90;8.85;;;;;;;17.34;100.00;98895.13;1645745;85;28086;-88
2022/08/07 01:01:09;;;;;;;11.78;9.33;;;;;;;17.32;100.00;98893.57;1641979;85;28134;-90
2022/08/07 01:03:36;;;;;;;12.13;8.53;;;;;;;17.35;100.00;98895.92;1649291;84;28245;-89
2022/08/07 01:06:02;;;;;;;12.05;9.00;;;;;;;17.32;100.00;98890.92;1645667;84;28205;-87
2022/08/07 01:08:29;;;;;;;10.85;8.78;;;;;;;17.32;100.00;98886.96;1660210;84;28156;-89
2022/08/07 01:10:55;;;;;;;10.20;8.40;;;;;;;17.28;100.00;98884.25;1664709;83;28104;-90
2022/08/07 01:13:22;;;;;;;10.55;7.83;;;;;;;17.27;100.00;98889.19;1633297;86;28095;-89
2022/08/07 01:15:49;;;;;;;11.65;9.10;;;;;;;17.27;100.00;98888.70;1642781;85;28056;-90
2022/08/07 01:18:16;;;;;;;9.70;8.65;;;;;;;17.26;100.00;98885.70;1650393;85;28172;-89
2022/08/07 01:20:45;;;;;;;13.48;8.25;;;;;;;17.27;100.00;98886.54;1650657;85;28109;-89
2022/08/07 01:23:12;;;;;;;11.22;8.90;;;;;;;17.27;100.00;98890.51;1652639;83;28162;-89
2022/08/07 01:25:39;;;;;;;11.08;8.93;;;;;;;17.23;100.00;98889.13;1670891;83;28132;-89
2022/08/07 01:28:05;;;;;;;11.35;8.65;;;;;;;17.20;100.00;98889.38;1675752;82;28111;-89
2022/08/07 01:30:37;;;;;;;11.40;8.68;;;;;;;17.17;100.00;98888.34;1672677;82;28080;-89
2022/08/07 01:33:03;;;;;;;12.73;9.80;;;;;;;17.15;100.00;98887.15;1677319;82;28276;-89
2022/08/07 01:35:29;;;;;;;10.38;8.50;;;;;;;17.14;100.00;98886.80;1666067;82;28133;-87
2022/08/07 01:37:56;;;;;;;12.15;8.55;;;;;;;17.11;100.00;98882.63;1694451;81;28534;-89
2022/08/07 01:40:25;;;;;;;13.55;8.40;;;;;;;17.07;100.00;98884.38;1660708;84;28246;-88
2022/08/07 01:42:54;;;;;;;10.10;8.30;;;;;;;17.04;100.00;98885.47;1648015;84;28101;-88
2022/08/07 01:45:25;;;;;;;11.60;8.45;;;;;;;17.02;100.00;98887.40;1627889;86;28173;-87
2022/08/07 01:47:54;;;;;;;;;;;;;;;17.06;100.00;98875.59;1652891;84;28101;-89
2022/08/07 01:50:22;;;;;;;10.72;9.18;;;;;;;17.07;100.00;98875.11;1692722;83;24524;-89
2022/08/07 01:52:59;;;;;;;11.28;8.75;;;;;;;17.03;100.00;98869.73;1692053;81;28250;-87
2022/08/07 01:55:28;;;;;;;12.00;9.15;;;;;;;17.00;100.00;98876.62;1693688;81;28282;-88
2022/08/07 01:57:58;;;;;;;14.33;9.10;;;;;;;16.96;100.00;98861.53;1704075;82;28104;-89
2022/08/07 02:00:27;;;;;;;10.48;9.35;;;;;;;16.89;100.00;98865.69;1683007;82;28233;-90
2022/08/07 02:03:01;;;;;;;11.25;10.05;;;;;;;16.87;100.00;98868.09;1697021;83;28052;-88
2022/08/07 02:05:32;;;;;;;12.50;9.55;;;;;;;16.81;100.00;98868.64;1690762;83;28080;-88
2022/08/07 02:08:02;;;;;;;16.17;10.48;;;;;;;16.73;100.00;98866.69;1700552;82;28096;-88
2022/08/07 02:10:31;;;;;;;13.68;10.32;;;;;;;16.66;100.00;98865.06;1691995;82;28004;-89
2022/08/07 02:13:00;;;;;;;14.55;9.80;;;;;;;16.60;100.00;98864.77;1678504;83;28159;-87
2022/08/07 02:15:29;;;;;;;13.00;10.25;;;;;;;16.56;100.00;98871.27;1695447;81;28033;-86
2022/08/07 02:17:57;;;;;;;13.22;10.68;;;;;;;16.53;100.00;98870.22;1698171;81;28150;-88
2022/08/07 02:20:24;;;;;;;15.13;10.53;;;;;;;16.52;100.00;98877.31;1703767;82;28096;-88
2022/08/07 02:22:54;;;;;;;13.83;11.12;;;;;;;16.49;100.00;98876.72;1701942;82;28142;-88
2022/08/07 02:25:22;;;;;;;12.75;10.00;;;;;;;16.50;100.00;98873.11;1695557;82;28143;-88
2022/08/07 02:27:51;;;;;;;13.50;9.78;;;;;;;16.48;100.00;98874.56;1694095;82;28069;-87
2022/08/07 02:30:19;;;;;;;17.73;9.75;;;;;;;16.47;100.00;98872.91;1692981;82;28159;-86
2022/08/07 02:32:47;;;;;;;11.15;9.83;;;;;;;16.45;100.00;98870.88;1705557;81;28123;-88
2022/08/07 02:35:18;;;;;;;14.00;10.45;;;;;;;16.46;100.00;98882.28;1694566;83;28007;-89
2022/08/07 02:37:49;;;;;;;16.05;11.18;;;;;;;16.49;100.00;98879.36;1694482;82;28095;-88
2022/08/07 02:40:15;;;;;;;;;;;;;;;16.50;100.00;98880.56;1703539;82;28213;-87
2022/08/07 02:42:42;;;;;;;14.98;11.48;;;;;;;16.47;100.00;98873.39;1712297;81;47342;-88
2022/08/07 02:45:12;;;;;;;16.10;10.15;;;;;;;16.46;100.00;98873.03;1693909;81;28242;-88
2022/08/07 02:47:38;;;;;;;13.05;10.75;;;;;;;16.44;100.00;98873.16;1706431;81;28210;-90
2022/08/07 02:50:08;;;;;;;11.55;9.85;;;;;;;16.42;100.00;98871.13;1690471;82;43571;-88
2022/08/07 02:52:37;;;;;;;13.58;10.23;;;;;;;16.41;100.00;98869.48;1672804;82;27997;-88
2022/08/07 02:55:11;;;;;;;14.25;10.95;;;;;;;16.39;100.00;98878.01;1680544;82;28202;-88
2022/08/07 02:57:40;;;;;;;15.28;11.00;;;;;;;16.35;100.00;98877.93;1698632;82;28089;-89
2022/08/07 03:00:07;;;;;;;14.85;10.93;;;;;;;16.31;100.00;98875.17;1693725;82;28141;-89
2022/08/07 03:02:34;;;;;;;14.18;11.78;;;;;;;16.30;100.00;98872.20;1679077;81;28266;-89
2022/08/07 03:05:02;;;;;;;19.25;12.07;;;;;;;16.26;100.00;98868.97;1696994;81;28099;-88
2022/08/07 03:07:31;;;;;;;14.30;11.43;;;;;;;16.27;100.00;98871.14;1681585;82;27993;-89
2022/08/07 03:09:58;;;;;;;13.65;11.93;;;;;;;16.24;100.00;98868.29;1674709;83;28113;-90
2022/08/07 03:12:25;;;;;;;17.35;12.50;;;;;;;16.23;100.00;98867.09;1666421;84;28142;-88
2022/08/07 03:14:55;;;;;;;18.27;14.03;;;;;;;16.23;100.00;98866.61;1662503;84;28504;-90
2022/08/07 03:17:22;;;;;;;16.65;13.43;;;;;;;16.21;100.00;98868.53;1655033;84;28107;-87
2022/08/07 03:19:52;;;;;;;19.17;14.10;;;;;;;16.21;100.00;98871.17;1670036;83;28102;-87
2022/08/07 03:22:21;;;;;;;17.80;13.48;;;;;;;16.21;100.00;98868.53;1662103;84;28273;-85
2022/08/07 03:24:48;;;;;;;16.12;13.08;;;;;;;16.20;100.00;98880.58;1666221;84;28127;-88
2022/08/07 03:27:15;;;;;;;17.92;13.48;;;;;;;16.19;100.00;98883.70;1671304;84;28075;-88
2022/08/07 03:29:47;;;;;;;16.50;13.45;;;;;;;16.20;100.00;98884.53;1667571;84;28006;-87
2022/08/07 03:32:16;;;;;;;15.98;13.08;;;;;;;16.21;100.00;98887.02;1646832;84;28172;-89
2022/08/07 03:34:45;;;;;;;15.08;12.60;;;;;;;16.16;100.00;98889.22;1694423;83;28139;-86
2022/08/07 03:37:12;;;;;;;14.75;12.28;;;;;;;16.13;100.00;98881.58;1689450;81;28099;-88
2022/08/07 03:39:40;;;;;;;12.90;11.33;;;;;;;16.12;100.00;98886.98;1690790;83;28261;-87
2022/08/07 03:42:07;;;;;;;16.20;11.53;;;;;;;16.09;100.00;98889.38;1681278;83;28088;-88
2022/08/07 03:44:38;;;;;;;14.40;11.93;;;;;;;16.05;100.00;98883.17;1700881;82;28207;-88
2022/08/07 03:47:05;;;;;;;13.28;10.88;;;;;;;16.02;100.00;98882.97;1673133;84;28115;-89
2022/08/07 03:49:33;;;;;;;16.48;11.78;;;;;;;15.97;100.00;98893.56;1689726;82;28101;-87
2022/08/07 03:52:00;;;;;;;15.63;12.93;;;;;;;15.89;100.00;98888.44;1703510;81;28195;-88
2022/08/07 03:54:29;;;;;;;13.70;11.28;;;;;;;15.87;100.00;98885.09;1687278;82;28101;-87
2022/08/07 03:56:55;;;;;;;17.12;13.28;;;;;;;15.91;100.00;98889.64;1691524;83;28138;-88
2022/08/07 03:59:23;;;;;;;16.67;12.10;;;;;;;15.85;100.00;98883.55;1692640;82;43423;-88
2022/08/07 04:01:54;;;;;;;18.12;13.18;;;;;;;15.96;100.00;98899.33;1649784;85;28083;-88
2022/08/07 04:04:24;;;;;;;15.38;12.65;;;;;;;16.02;100.00;98904.58;1654631;83;28129;-89
2022/08/07 04:06:54;;;;;;;17.37;13.40;;;;;;;15.99;100.00;98904.34;1657026;83;28193;-88
2022/08/07 04:09:24;;;;;;;17.95;13.43;;;;;;;15.89;100.00;98892.41;1654781;85;28199;-88
2022/08/07 04:11:51;;;;;;;14.83;12.03;;;;;;;15.98;100.00;98907.12;1700223;81;28208;-88
2022/08/07 04:14:18;;;;;;;18.32;12.85;;;;;;;16.00;100.00;98909.13;1699271;81;27993;-87
2022/08/07 04:16:45;;;;;;;15.98;13.15;;;;;;;15.96;100.00;98908.56;1708092;81;28140;-89
2022/08/07 04:19:11;;;;;;;16.65;13.00;;;;;;;15.95;100.00;98902.09;1688617;82;28068;-89
2022/08/07 04:21:40;;;;;;;18.50;13.62;;;;;;;15.92;100.00;98904.52;1692769;81;28266;-89
2022/08/07 04:24:10;;;;;;;17.92;12.35;;;;;;;15.93;100.00;98905.36;1700628;82;28106;-89
2022/08/07 04:26:38;;;;;;;18.50;14.58;;;;;;;15.95;100.00;98904.73;1683015;81;28124;-87
2022/08/07 04:29:09;;;;;;;16.82;13.38;;;;;;;15.98;100.00;98914.56;1690065;83;28212;-87
2022/08/07 04:31:42;;;;;;;15.78;9.73;;;;;;;16.04;100.00;98916.66;1688181;82;28004;-87
2022/08/07 04:34:09;;;;;;;18.70;13.38;;;;;;;16.04;100.00;98911.38;1687112;82;28032;-87
2022/08/07 04:36:36;;;;;;;17.05;12.98;;;;;;;16.02;100.00;98904.09;1702959;81;28103;-88
2022/08/07 04:39:04;;;;;;;20.48;13.48;;;;;;;16.03;100.00;98901.81;1714832;81;28096;-87
2022/08/07 04:41:33;;;;;;;16.55;13.00;;;;;;;16.07;100.00;98899.26;1688756;82;28148;-87
2022/08/07 04:44:01;;;;;;;14.43;11.75;;;;;;;16.10;100.00;98897.66;1675539;83;93556;-86
2022/08/07 04:47:01;;;;;;;17.17;12.23;;;;;;;16.13;100.00;98901.86;1701454;82;28076;-88
2022/08/07 04:49:50;;;;;;;20.40;13.00;;;;;;;16.12;100.00;98893.58;1662901;83;28080;-88
2022/08/07 04:52:37;;;;;;;14.98;11.28;;;;;;;16.17;100.00;98901.95;1658542;84;28077;-88
2022/08/07 04:55:22;;;;;;;12.07;9.50;;;;;;;16.19;100.00;98903.50;1686570;83;28088;-88
2022/08/07 04:57:52;;;;;;;15.48;11.48;;;;;;;16.20;100.00;98903.83;1674209;83;28189;-88
2022/08/07 05:00:22;;;;;;;15.25;10.53;;;;;;;16.21;100.00;98905.51;1698651;82;28088;-87
2022/08/07 05:02:53;;;;;;;13.28;9.78;;;;;;;16.22;100.00;98909.83;1680937;81;28095;-88
2022/08/07 05:05:22;;;;;;;10.23;7.97;;;;;;;16.22;100.00;98915.11;1626778;86;28208;-88
2022/08/07 05:08:01;;;;;;;15.13;10.08;;;;;;;16.22;100.00;98916.43;1603947;87;28309;-90
2022/08/07 05:10:46;;;;;;;14.28;10.23;;;;;;;16.26;100.00;98915.20;1646922;84;28087;-88
2022/08/07 05:13:19;;;;;;;15.88;10.32;;;;;;;16.28;100.00;98917.71;1677981;83;28108;-88
2022/08/07 05:15:49;;;;;;;12.15;9.65;;;;;;;16.32;100.00;98916.00;1639962;85;28112;-88
2022/08/07 05:18:26;;;;;;;;;;;;;;;16.35;100.00;98917.55;1663111;84;28045;-89
2022/08/07 05:20:53;;;;;;;15.30;10.48;;;;;;;16.40;100.00;98918.47;1689863;81;26103;-88
2022/08/07 05:23:23;;;;;;;14.83;10.82;;;;;;;16.50;100.00;98924.16;1654878;84;28092;-88
2022/08/07 05:25:51;;;;;;;13.55;10.45;;;;;;;16.55;100.00;98917.14;1681083;83;28052;-89
2022/08/07 05:28:24;;;;;;;16.00;10.85;;;;;;;16.60;100.00;98922.41;1676194;82;28158;-87
2022/08/07 05:30:53;;;;;;;12.65;9.73;;;;;;;16.72;100.00;98920.03;1688269;82;28182;-89
2022/08/07 05:33:21;;;;;;;16.60;9.33;;;;;;;16.79;100.00;98919.50;1697542;81;28218;-88
2022/08/07 05:35:50;;;;;;;13.55;9.23;;;;;;;16.83;100.00;98920.90;1687098;81;28082;-87
2022/08/07 05:38:19;;;;;;;13.05;8.93;;;;;;;16.84;100.00;98915.48;1659217;83;28096;-87
2022/08/07 05:40:45;;;;;;;14.55;9.45;;;;;;;16.85;100.00;98917.16;1676036;83;28042;-87
2022/08/07 05:43:12;;;;;;;10.20;8.40;;;;;;;16.82;100.00;98917.90;1690155;82;28013;-87
2022/08/07 05:45:40;;;;;;;12.98;8.98;;;;;;;16.84;100.00;98912.84;1692219;82;28109;-86
2022/08/07 05:48:06;;;;;;;10.30;8.83;;;;;;;16.89;100.00;98925.17;1692964;81;28099;-87
2022/08/07 05:50:33;;;;;;;12.20;8.45;;;;;;;16.90;100.00;98920.23;1695812;82;28108;-87
2022/08/07 05:53:02;;;;;;;12.75;8.58;;;;;;;16.93;100.00;98924.41;1681776;83;28256;-87
2022/08/07 05:55:31;;;;;;;10.90;8.70;;;;;;;16.98;100.00;98931.44;1703420;82;28802;-87
2022/08/07 05:57:59;;;;;;;12.63;8.58;;;;;;;17.00;100.00;98929.51;1671778;83;28139;-87
2022/08/07 06:00:29;;;;;;;9.50;7.40;;;;;;;17.03;100.00;98926.58;1665321;83;28193;-87
2022/08/07 06:02:58;;;;;;;10.98;7.90;;;;;;;17.08;100.00;98926.52;1689478;81;28128;-87
2022/08/07 06:05:27;;;;;;;8.38;6.65;;;;;;;17.13;100.00;98928.27;1694690;82;28207;-87
2022/08/07 06:07:56;;;;;;;7.50;6.05;;;;;;;17.20;100.00;98935.66;1659583;83;28196;-88
2022/08/07 06:10:23;;;;;;;8.73;6.28;;;;;;;17.19;100.00;98933.50;1711398;81;28202;-87
2022/08/07 06:12:50;;;;;;;6.42;5.37;;;;;;;17.19;100.00;98934.83;1674950;82;40009;-87
2022/08/07 06:15:17;;;;;;;6.78;5.72;;;;;;;17.19;100.00;98936.15;1703261;82;28115;-87
2022/08/07 06:17:45;;;;;;;7.47;5.97;;;;;;;17.22;100.00;98935.05;1697525;82;28119;-88
2022/08/07 06:20:16;;;;;;;7.20;6.03;;;;;;;17.23;100.00;98936.73;1695832;81;28176;-88
2022/08/07 06:22:43;;;;;;;6.15;4.90;;;;;;;17.24;100.00;98929.16;1680818;82;28081;-87
2022/08/07 06:25:09;;;;;;;5.67;4.87;;;;;;;17.26;100.00;98932.00;1695050;82;28015;-87
2022/08/07 06:27:36;;;;;;;7.85;5.10;;;;;;;17.30;100.00;98941.32;1702014;82;28161;-87
2022/08/07 06:30:03;;;;;;;6.20;5.10;;;;;;;17.33;100.00;98940.23;1692569;82;28174;-87
2022/08/07 06:32:30;;;;;;;6.62;4.78;;;;;;;17.36;100.00;98935.97;1686477;83;28104;-87
2022/08/07 06:34:58;;;;;;;7.42;5.12;;;;;;;17.41;100.00;98937.71;1674911;81;28084;-90
2022/08/07 06:37:24;;;;;;;7.97;4.78;;;;;;;17.44;100.00;98934.81;1701113;82;28141;-88
2022/08/07 06:39:52;;;;;;;8.00;5.28;;;;;;;17.49;100.00;98933.91;1681653;82;28132;-89
2022/08/07 06:42:36;;;;;;;6.42;4.20;;;;;;;17.49;100.00;98929.94;1689233;82;28098;-88
2022/08/07 06:45:06;;;;;;;4.78;4.25;;;;;;;17.57;100.00;98936.20;1680765;83;28088;-90
2022/08/07 06:47:32;;;;;;;5.92;4.05;;;;;;;17.62;100.00;98933.16;1657557;82;28110;-87
2022/08/07 06:49:59;;;;;;;5.35;4.20;;;;;;;17.68;100.00;98941.03;1709993;82;28098;-91
2022/08/07 06:52:28;;;;;;;4.90;3.85;;;;;;;17.75;100.00;98941.67;1696403;82;28183;-89
2022/08/07 06:54:59;;;;;;;5.87;3.50;;;;;;;17.82;100.00;98942.80;1706039;81;28118;-90
2022/08/07 06:57:28;;;;;;;5.08;3.22;;;;;;;17.88;100.00;98946.69;1705786;81;28100;-87
2022/08/07 06:59:56;;;;;;;5.47;3.02;;;;;;;17.94;100.00;98948.78;1707889;81;28112;-88
2022/08/07 07:02:25;;;;;;;5.55;3.02;;;;;;;17.98;100.00;98947.52;1703216;82;27992;-88
2022/08/07 07:04:52;;;;;;;8.13;3.37;;;;;;;18.07;100.00;98945.33;1708265;81;28120;-87
2022/08/07 07:07:20;;;;;;;3.37;2.42;;;;;;;18.14;100.00;98945.61;1662729;83;28170;-86
2022/08/07 07:09:48;;;;;;;3.35;2.67;;;;;;;18.15;100.00;98941.98;1687454;82;28027;-86
2022/08/07 07:12:21;;;;;;;5.00;2.55;;;;;;;18.08;100.00;98935.09;1697574;81;28100;-86
2022/08/07 07:15:06;;;;;;;3.10;2.50;;;;;;;18.03;100.00;98930.70;1685955;81;28239;-88
2022/08/07 07:17:48;;;;;;;5.03;2.10;;;;;;;18.08;100.00;98932.44;1690911;82;28279;-90
2022/08/07 07:20:36;;;;;;;3.05;2.45;;;;;;;18.17;100.00;98937.36;1685702;82;28097;-87
2022/08/07 07:23:05;;;;;;;3.77;2.22;;;;;;;18.22;100.00;98937.80;1674050;83;28186;-89
2022/08/07 07:25:35;;;;;;;4.15;2.37;;;;;;;18.26;100.00;98936.03;1697061;81;28061;-87
2022/08/07 07:28:13;;;;;;;3.58;2.30;;;;;;;18.33;100.00;98938.92;1672635;82;28019;-86
2022/08/07 07:30:43;;;;;;;5.30;2.50;;;;;;;18.32;100.00;98935.95;1689913;82;28084;-86
2022/08/07 07:33:12;;;;;;;3.72;2.42;;;;;;;18.37;100.00;98939.84;1705853;81;28082;-89
2022/08/07 07:35:42;;;;;;;3.52;2.37;;;;;;;18.48;100.00;98939.32;1664630;84;28131;-90
2022/08/07 07:38:10;;;;;;;3.35;2.30;;;;;;;18.57;100.00;98934.02;1708633;82;28066;-88
2022/08/07 07:40:39;;;;;;;3.30;1.80;;;;;;;18.71;100.00;98938.02;1698054;82;28100;-87
2022/08/07 07:43:06;;;;;;;2.85;2.00;;;;;;;18.77;100.00;98930.78;1702380;81;28082;-86
2022/08/07 07:45:35;;;;;;;2.95;1.80;;;;;;;18.76;100.00;98936.56;1693824;82;28162;-88
2022/08/07 07:48:07;;;;;;;4.12;1.98;;;;;;;18.75;100.00;98940.23;1670026;83;28109;-89
2022/08/07 07:50:31;;;;;;;3.72;1.95;;;;;;;18.74;100.00;98942.53;1704931;81;28067;-88
2022/08/07 07:52:59;;;;;;;3.67;2.00;;;;;;;18.68;100.00;98935.64;1678172;82;28089;-89
2022/08/07 07:55:30;;;;;;;2.30;1.90;;;;;;;18.66;100.00;98941.08;1696934;82;28222;-89
2022/08/07 07:57:58;;;;;;;4.65;2.30;;;;;;;18.62;100.00;98941.52;1699950;81;28080;-88
2022/08/07 08:00:26;;;;;;;2.27;1.98;;;;;;;18.54;100.00;98938.30;1699610;82;28094;-89
2022/08/07 08:02:56;;;;;;;3.10;1.70;;;;;;;18.53;100.00;98939.72;1691902;83;28099;-89
2022/08/07 08:05:23;;;;;;;3.05;1.98;;;;;;;18.46;100.00;98935.97;1684442;82;28183;-88
2022/08/07 08:07:49;;;;;;;2.42;2.02;;;;;;;18.33;100.00;98931.81;1694275;82;28127;-89
2022/08/07 08:10:18;;;;;;;2.50;1.70;;;;;;;18.24;100.00;98934.50;1696821;82;28102;-89
2022/08/07 08:12:46;;;;;;;3.17;1.95;;;;;;;18.16;100.00;98931.73;1694921;82;28088;-88
2022/08/07 08:15:12;;;;;;;2.65;1.77;;;;;;;18.10;100.00;98934.47;1682541;81;28261;-90
2022/08/07 08:17:41;;;;;;;3.50;1.90;;;;;;;18.08;100.00;98929.79;1706141;82;28092;-90
2022/08/07 08:20:09;;;;;;;3.17;2.20;;;;;;;18.07;100.00;98932.58;1695725;81;28249;-89
2022/08/07 08:28:16;;;;;;;3.17;2.15;;;;;;;18.18;100.00;98943.84;1601300;87;28074;-89
2022/08/07 08:30:44;;;;;;;3.87;1.98;;;;;;;18.27;100.00;98944.30;1657804;83;28117;-87
2022/08/07 08:33:17;;;;;;;4.35;1.92;;;;;;;18.32;100.00;98939.44;1685990;82;28119;-87
2022/08/07 08:35:44;;;;;;;2.17;1.70;;;;;;;18.42;100.00;98936.76;1691745;81;28224;-87
2022/08/07 08:38:13;;;;;;;1.50;1.40;;;;;;;18.53;100.00;98942.37;1709336;81;28232;-90
2022/08/07 08:40:43;;;;;;;3.55;2.10;;;;;;;18.60;100.00;98946.16;1688093;82;28130;-91
2022/08/07 08:43:19;;;;;;;3.72;1.80;;;;;;;18.63;100.00;98949.83;1700181;82;28056;-87
2022/08/07 08:45:52;;;;;;;2.80;2.00;;;;;;;18.67;100.00;98952.03;1696972;81;28062;-89
2022/08/07 08:48:18;;;;;;;3.42;1.87;;;;;;;18.69;100.00;98950.09;1686097;82;28095;-90
2022/08/07 08:50:55;;;;;;;2.47;1.70;;;;;;;18.77;100.00;98949.34;1693702;81;28138;-89
2022/08/07 08:53:34;;;;;;;2.65;1.90;;;;;;;18.79;100.00;98950.88;1678514;82;28293;-88
2022/08/07 08:56:07;;;;;;;3.05;2.10;;;;;;;18.78;100.00;98950.53;1699178;81;28113;-89
2022/08/07 08:58:49;;;;;;;2.27;2.08;;;;;;;18.79;100.00;98943.41;1682853;81;28154;-90
2022/08/07 09:01:27;;;;;;;2.83;2.15;;;;;;;18.74;100.00;98945.67;1690289;81;28233;-86
2022/08/07 09:04:17;;;;;;;2.77;2.00;;;;;;;18.70;100.00;98960.20;1660282;83;28098;-86
2022/08/07 09:06:51;;;;;;;2.35;2.00;;;;;;;18.68;100.00;98959.02;1684320;82;28072;-86
2022/08/07 09:09:32;;;;;;;3.47;2.05;;;;;;;18.64;100.00;98953.67;1701438;81;28109;-87
2022/08/07 09:12:17;;;;;;;2.20;1.72;;;;;;;18.67;100.00;98955.17;1696176;81;28060;-86
2022/08/07 09:15:04;;;;;;;4.28;2.08;;;;;;;18.68;100.00;98955.53;1682953;82;28156;-90
2022/08/07 09:17:36;;;;;;;2.83;2.45;;;;;;;18.70;100.00;98961.53;1676890;83;28098;-89
2022/08/07 09:20:30;;;;;;;3.47;2.35;;;;;;;18.72;100.00;98956.90;1659567;83;28092;-89
2022/08/07 09:23:03;;;;;;;3.95;2.60;;;;;;;18.66;100.00;98953.50;1637306;85;28227;-86
2022/08/07 09:25:39;;;;;;;5.30;2.58;;;;;;;18.68;100.00;98962.16;1674321;83;28051;-86
2022/08/07 09:28:08;;;;;;;4.03;2.42;;;;;;;18.77;100.00;98962.11;1628881;85;28101;-86
2022/08/07 09:30:47;;;;;;;3.87;2.35;;;;;;;18.83;100.00;98966.48;1662485;84;28081;-88
2022/08/07 09:33:36;;;;;;;2.90;2.60;;;;;;;18.88;100.00;98958.92;1656677;84;28187;-87
2022/08/07 09:36:21;;;;;;;4.03;2.47;;;;;;;18.99;100.00;98960.05;1648434;83;28240;-89
2022/08/07 09:39:12;;;;;;;3.10;2.45;;;;;;;19.15;100.00;98956.27;1682631;83;28091;-88
2022/08/07 09:41:47;;;;;;;3.35;1.95;;;;;;;19.27;100.00;98953.76;1674169;83;28120;-89
2022/08/07 09:44:51;;;;;;;3.83;2.87;;;;;;;19.27;100.00;98955.09;1633669;84;28125;-88
2022/08/07 09:47:37;;;;;;;3.92;2.50;;;;;;;19.31;100.00;98949.81;1707235;81;28007;-89
2022/08/07 09:50:17;;;;;;;6.10;2.70;;;;;;;19.39;100.00;98947.27;1697548;81;28083;-89
2022/08/07 09:52:51;;;;;;;;;;;;;;;19.42;100.00;98942.16;1699446;83;28151;-87
2022/08/07 09:55:21;;;;;;;3.20;2.33;;;;;;;19.48;100.00;98937.09;1703743;81;25605;-87
2022/08/07 09:57:56;;;;;;;2.60;2.40;;;;;;;19.61;100.00;98933.58;1699706;81;28074;-87
2022/08/07 10:00:28;;;;;;;3.00;1.82;;;;;;;19.70;100.00;98929.66;1688290;81;28150;-86
2022/08/07 10:03:04;;;;;;;;;;;;;;;19.72;100.00;98919.72;1712593;81;28242;-88
2022/08/07 10:05:51;;;;;;;2.22;1.80;;;;;;;19.79;100.00;98913.66;1675308;83;20154;-87
2022/08/07 10:08:51;;;;;;;1.90;1.70;;;;;;;19.86;100.00;98922.66;1687193;82;28112;-88
2022/08/07 10:11:24;;;;;;;2.10;1.42;;;;;;;19.94;100.00;98916.59;1699446;81;28001;-87
2022/08/07 10:14:15;;;;;;;1.65;1.42;;;;;;;19.99;100.00;98905.84;1679446;83;28388;-87
2022/08/07 10:17:01;;;;;;;1.92;1.67;;;;;;;20.07;100.00;98900.25;1670154;83;28130;-87
2022/08/07 10:19:31;;;;;;;2.70;1.37;;;;;;;20.11;100.00;98895.80;1663288;84;28172;-87
2022/08/07 10:22:36;;;;;;;3.72;1.55;;;;;;;20.22;100.00;98895.53;1667083;84;28144;-87
2022/08/07 10:25:27;;;;;;;2.35;1.45;;;;;;;20.29;100.00;98892.56;1701451;82;28029;-89
2022/08/07 10:28:12;;;;;;;1.00;0.88;;;;;;;20.37;100.00;98893.16;1692956;82;28143;-88
2022/08/07 10:31:01;;;;;;;1.57;1.45;;;;;;;20.37;100.00;98888.67;1687611;81;28088;-87
2022/08/07 10:33:31;;;;;;;3.60;1.60;;;;;;;20.36;100.00;98893.64;1700852;82;28137;-87
2022/08/07 10:36:22;;;;;;;2.98;1.32;;;;;;;20.38;100.00;98891.67;1662129;84;28245;-87
2022/08/07 10:38:58;;;;;;;3.42;1.40;;;;;;;20.44;100.00;98885.73;1623438;85;28096;-87
2022/08/07 10:41:37;;;;;;;3.75;1.80;;;;;;;20.45;100.00;98877.25;1640969;84;28104;-87
2022/08/07 10:44:36;;;;;;;1.77;1.50;;;;;;;20.51;100.00;98878.45;1700456;81;28075;-86
2022/08/07 10:47:25;;;;;;;2.72;1.57;;;;;;;20.63;100.00;98879.81;1699361;82;28096;-87
2022/08/07 10:50:01;;;;;;;2.25;1.40;;;;;;;20.68;100.00;98878.83;1689456;83;28175;-87
2022/08/07 10:52:45;;;;;;;1.92;1.57;;;;;;;20.62;100.00;98880.83;1678721;82;28114;-87
2022/08/07 10:55:18;;;;;;;2.62;1.57;;;;;;;20.64;100.00;98872.17;1672526;82;28073;-86
2022/08/07 10:58:00;;;;;;;1.70;1.20;;;;;;;20.68;100.00;98866.37;1706355;81;28101;-89
2022/08/07 11:00:33;;;;;;;3.90;1.45;;;;;;;20.70;100.00;98872.86;1689331;82;28258;-87
2022/08/07 11:03:12;;;;;;;1.30;1.20;;;;;;;20.77;100.00;98868.58;1696207;82;28104;-88
2022/08/07 11:05:53;;;;;;;1.90;1.35;;;;;;;20.84;100.00;98862.44;1706826;81;28164;-88
2022/08/07 11:08:45;;;;;;;2.65;1.37;;;;;;;20.85;100.00;98856.62;1699709;81;28072;-87
2022/08/07 11:11:24;;;;;;;3.35;1.40;;;;;;;20.80;100.00;98856.27;1692904;82;28136;-88
2022/08/07 11:13:57;;;;;;;1.55;1.40;;;;;;;20.88;100.00;98859.81;1674610;82;28298;-89
2022/08/07 11:16:29;;;;;;;6.00;1.72;;;;;;;20.95;100.00;98855.98;1704058;81;28139;-88
2022/08/07 11:19:05;;;;;;;1.15;1.05;;;;;;;20.99;100.00;98853.35;1706688;81;28077;-89
2022/08/07 11:21:50;;;;;;;2.40;1.45;;;;;;;21.09;100.00;98848.71;1697752;82;28548;-86
2022/08/07 11:24:22;;;;;;;1.67;1.00;;;;;;;21.08;100.00;98847.53;1707834;81;28121;-89
2022/08/07 11:26:58;;;;;;;2.52;1.10;;;;;;;21.14;100.00;98849.55;1686498;81;28068;-87
2022/08/07 11:29:40;;;;;;;2.80;1.17;;;;;;;21.19;100.00;98852.08;1698480;82;28144;-86
2022/08/07 11:32:22;;;;;;;1.30;1.00;;;;;;;21.17;100.00;98842.58;1696408;81;28230;-86
2022/08/07 11:34:52;;;;;;;1.32;0.80;;;;;;;21.25;100.00;98847.44;1687334;82;28072;-86
2022/08/07 11:37:34;;;;;;;3.27;1.20;;;;;;;21.32;100.00;98848.95;1686324;81;28092;-86
2022/08/07 11:40:19;;;;;;;1.72;0.90;;;;;;;21.44;100.00;98847.60;1696718;83;28102;-87
2022/08/07 11:42:51;;;;;;;2.05;0.93;;;;;;;21.55;100.00;98842.44;1698600;82;28211;-87
2022/08/07 11:45:38;;;;;;;1.25;0.90;;;;;;;21.44;100.00;98840.95;1685420;82;28163;-87
2022/08/07 11:48:35;;;;;;;0.98;0.82;;;;;;;21.35;100.00;98834.45;1684332;82;28084;-87
2022/08/07 11:51:23;;;;;;;3.10;1.30;;;;;;;21.31;100.00;98834.46;1671544;81;28111;-89